sensor_id;sensor_type;location;lat;lon;timestamp;temperature;humidity
71175;DHT22;58876;51.994;4.472;2023-08-20T00:00:13;20.48;70.06
71175;DHT22;58876;51.994;4.472;2023-08-20T00:02:42;20.52;70.05
71175;DHT22;58876;51.994;4.472;2023-08-20T00:05:09;20.58;70.20
71175;DHT22;58876;51.994;4.472;2023-08-20T00:07:35;20.62;70.30
71175;DHT22;58876;51.994;4.472;2023-08-20T00:10:02;20.62;70.17
71175;DHT22;58876;51.994;4.472;2023-08-20T00:12:30;20.66;70.39
71175;DHT22;58876;51.994;4.472;2023-08-20T00:14:59;20.68;70.21
71175;DHT22;58876;51.994;4.472;2023-08-20T00:17:30;20.72;70.32
71175;DHT22;58876;51.994;4.472;2023-08-20T00:19:56;20.71;70.28
71175;DHT22;58876;51.994;4.472;2023-08-20T00:22:24;20.69;70.41
71175;DHT22;58876;51.994;4.472;2023-08-20T00:24:53;20.69;70.58
71175;DHT22;58876;51.994;4.472;2023-08-20T00:27:20;20.71;70.39
71175;DHT22;58876;51.994;4.472;2023-08-20T00:29:46;20.73;70.31
71175;DHT22;58876;51.994;4.472;2023-08-20T00:32:12;20.72;70.80
71175;DHT22;58876;51.994;4.472;2023-08-20T00:34:37;20.75;70.70
71175;DHT22;58876;51.994;4.472;2023-08-20T00:37:03;20.72;70.80
71175;DHT22;58876;51.994;4.472;2023-08-20T00:39:29;20.66;71.28
71175;DHT22;58876;51.994;4.472;2023-08-20T00:41:55;20.66;71.49
71175;DHT22;58876;51.994;4.472;2023-08-20T00:44:21;20.77;70.93
71175;DHT22;58876;51.994;4.472;2023-08-20T00:46:46;20.79;70.74
71175;DHT22;58876;51.994;4.472;2023-08-20T00:49:12;20.79;70.93
71175;DHT22;58876;51.994;4.472;2023-08-20T00:51:39;20.75;70.71
71175;DHT22;58876;51.994;4.472;2023-08-20T00:54:05;20.71;70.93
71175;DHT22;58876;51.994;4.472;2023-08-20T00:56:30;20.66;71.16
71175;DHT22;58876;51.994;4.472;2023-08-20T00:58:57;20.58;71.43
71175;DHT22;58876;51.994;4.472;2023-08-20T01:01:23;20.59;71.56
71175;DHT22;58876;51.994;4.472;2023-08-20T01:03:49;20.58;71.53
71175;DHT22;58876;51.994;4.472;2023-08-20T01:06:55;20.61;72.06
71175;DHT22;58876;51.994;4.472;2023-08-20T01:09:50;20.69;71.85
71175;DHT22;58876;51.994;4.472;2023-08-20T01:12:19;20.73;71.35
71175;DHT22;58876;51.994;4.472;2023-08-20T01:14:45;20.77;71.02
71175;DHT22;58876;51.994;4.472;2023-08-20T01:17:10;20.76;70.83
71175;DHT22;58876;51.994;4.472;2023-08-20T01:19:36;20.79;70.92
71175;DHT22;58876;51.994;4.472;2023-08-20T01:24:59;20.82;70.66
71175;DHT22;58876;51.994;4.472;2023-08-20T01:28:01;20.76;71.15
71175;DHT22;58876;51.994;4.472;2023-08-20T01:30:24;20.64;71.07
71175;DHT22;58876;51.994;4.472;2023-08-20T01:32:52;20.61;71.81
71175;DHT22;58876;51.994;4.472;2023-08-20T01:35:18;20.58;72.12
71175;DHT22;58876;51.994;4.472;2023-08-20T01:37:44;20.47;71.25
71175;DHT22;58876;51.994;4.472;2023-08-20T01:40:10;20.35;71.06
71175;DHT22;58876;51.994;4.472;2023-08-20T01:42:37;20.24;71.96
71175;DHT22;58876;51.994;4.472;2023-08-20T01:45:03;20.22;72.76
71175;DHT22;58876;51.994;4.472;2023-08-20T01:47:29;20.21;72.89
71175;DHT22;58876;51.994;4.472;2023-08-20T01:49:54;20.16;73.07
71175;DHT22;58876;51.994;4.472;2023-08-20T01:52:20;20.16;73.78
71175;DHT22;58876;51.994;4.472;2023-08-20T01:54:48;20.10;73.66
71175;DHT22;58876;51.994;4.472;2023-08-20T01:57:14;20.07;74.09
71175;DHT22;58876;51.994;4.472;2023-08-20T01:59:39;20.06;74.33
71175;DHT22;58876;51.994;4.472;2023-08-20T02:02:05;20.01;74.23
71175;DHT22;58876;51.994;4.472;2023-08-20T02:04:31;19.97;74.34
71175;DHT22;58876;51.994;4.472;2023-08-20T02:06:57;19.94;74.25
71175;DHT22;58876;51.994;4.472;2023-08-20T02:09:22;19.87;74.02
71175;DHT22;58876;51.994;4.472;2023-08-20T02:11:48;19.83;73.68
71175;DHT22;58876;51.994;4.472;2023-08-20T02:14:13;19.83;74.72
71175;DHT22;58876;51.994;4.472;2023-08-20T02:16:39;19.80;75.16
71175;DHT22;58876;51.994;4.472;2023-08-20T02:19:05;19.71;75.50
71175;DHT22;58876;51.994;4.472;2023-08-20T02:21:32;19.71;75.66
71175;DHT22;58876;51.994;4.472;2023-08-20T02:23:57;19.70;75.65
71175;DHT22;58876;51.994;4.472;2023-08-20T02:26:23;19.69;75.64
71175;DHT22;58876;51.994;4.472;2023-08-20T02:28:48;19.71;75.51
71175;DHT22;58876;51.994;4.472;2023-08-20T02:31:14;19.67;75.65
71175;DHT22;58876;51.994;4.472;2023-08-20T02:33:39;19.69;75.74
71175;DHT22;58876;51.994;4.472;2023-08-20T02:36:05;19.66;75.71
71175;DHT22;58876;51.994;4.472;2023-08-20T02:38:31;19.67;75.56
71175;DHT22;58876;51.994;4.472;2023-08-20T02:40:56;19.63;75.76
71175;DHT22;58876;51.994;4.472;2023-08-20T02:43:22;19.63;75.84
71175;DHT22;58876;51.994;4.472;2023-08-20T02:45:48;19.65;75.91
71175;DHT22;58876;51.994;4.472;2023-08-20T02:48:14;19.52;76.59
71175;DHT22;58876;51.994;4.472;2023-08-20T02:50:40;19.56;76.45
71175;DHT22;58876;51.994;4.472;2023-08-20T02:53:05;19.55;76.66
71175;DHT22;58876;51.994;4.472;2023-08-20T02:55:32;19.65;76.24
71175;DHT22;58876;51.994;4.472;2023-08-20T02:57:58;19.63;76.51
71175;DHT22;58876;51.994;4.472;2023-08-20T03:00:23;19.69;76.51
71175;DHT22;58876;51.994;4.472;2023-08-20T03:02:49;19.73;76.28
71175;DHT22;58876;51.994;4.472;2023-08-20T03:05:14;19.71;76.02
71175;DHT22;58876;51.994;4.472;2023-08-20T03:07:40;19.67;76.02
71175;DHT22;58876;51.994;4.472;2023-08-20T03:10:06;19.66;76.29
71175;DHT22;58876;51.994;4.472;2023-08-20T03:12:31;19.62;76.36
71175;DHT22;58876;51.994;4.472;2023-08-20T03:14:58;19.60;76.42
71175;DHT22;58876;51.994;4.472;2023-08-20T03:17:24;19.62;76.54
71175;DHT22;58876;51.994;4.472;2023-08-20T03:19:57;19.57;76.66
71175;DHT22;58876;51.994;4.472;2023-08-20T03:22:25;19.48;76.96
71175;DHT22;58876;51.994;4.472;2023-08-20T03:24:51;19.45;77.18
71175;DHT22;58876;51.994;4.472;2023-08-20T03:27:18;19.35;77.30
71175;DHT22;58876;51.994;4.472;2023-08-20T03:29:44;19.38;77.52
71175;DHT22;58876;51.994;4.472;2023-08-20T03:32:10;19.42;77.48
71175;DHT22;58876;51.994;4.472;2023-08-20T03:34:35;19.42;77.17
71175;DHT22;58876;51.994;4.472;2023-08-20T03:37:01;19.42;77.25
71175;DHT22;58876;51.994;4.472;2023-08-20T03:39:27;19.38;77.13
71175;DHT22;58876;51.994;4.472;2023-08-20T03:41:53;19.38;77.19
71175;DHT22;58876;51.994;4.472;2023-08-20T03:44:19;19.36;77.26
71175;DHT22;58876;51.994;4.472;2023-08-20T03:46:45;19.30;77.00
71175;DHT22;58876;51.994;4.472;2023-08-20T03:49:10;19.26;77.39
71175;DHT22;58876;51.994;4.472;2023-08-20T03:51:36;19.20;77.58
71175;DHT22;58876;51.994;4.472;2023-08-20T03:54:02;19.22;77.49
71175;DHT22;58876;51.994;4.472;2023-08-20T03:56:28;19.18;77.43
71175;DHT22;58876;51.994;4.472;2023-08-20T03:58:54;19.05;78.15
71175;DHT22;58876;51.994;4.472;2023-08-20T04:01:19;19.09;78.25
71175;DHT22;58876;51.994;4.472;2023-08-20T04:03:46;19.04;78.43
71175;DHT22;58876;51.994;4.472;2023-08-20T04:06:12;18.97;78.48
71175;DHT22;58876;51.994;4.472;2023-08-20T04:08:37;18.90;78.63
71175;DHT22;58876;51.994;4.472;2023-08-20T04:11:03;18.83;79.05
71175;DHT22;58876;51.994;4.472;2023-08-20T04:13:29;18.90;78.77
71175;DHT22;58876;51.994;4.472;2023-08-20T04:15:55;18.97;78.39
71175;DHT22;58876;51.994;4.472;2023-08-20T04:18:21;18.94;78.00
71175;DHT22;58876;51.994;4.472;2023-08-20T04:20:50;18.90;78.03
71175;DHT22;58876;51.994;4.472;2023-08-20T04:23:15;18.84;78.49
71175;DHT22;58876;51.994;4.472;2023-08-20T04:25:41;18.74;79.03
71175;DHT22;58876;51.994;4.472;2023-08-20T04:28:07;18.78;78.92
71175;DHT22;58876;51.994;4.472;2023-08-20T04:30:34;18.75;79.05
71175;DHT22;58876;51.994;4.472;2023-08-20T04:33:00;18.75;79.03
71175;DHT22;58876;51.994;4.472;2023-08-20T04:35:25;18.72;78.95
71175;DHT22;58876;51.994;4.472;2023-08-20T04:37:51;18.67;79.13
71175;DHT22;58876;51.994;4.472;2023-08-20T04:40:16;18.67;79.26
71175;DHT22;58876;51.994;4.472;2023-08-20T04:42:41;18.68;79.03
71175;DHT22;58876;51.994;4.472;2023-08-20T04:45:07;18.67;79.17
71175;DHT22;58876;51.994;4.472;2023-08-20T04:47:33;18.67;79.04
71175;DHT22;58876;51.994;4.472;2023-08-20T04:49:59;18.64;79.53
71175;DHT22;58876;51.994;4.472;2023-08-20T04:52:24;18.59;79.63
71175;DHT22;58876;51.994;4.472;2023-08-20T04:54:50;18.59;79.53
71175;DHT22;58876;51.994;4.472;2023-08-20T04:57:15;18.60;79.41
71175;DHT22;58876;51.994;4.472;2023-08-20T04:59:41;18.64;79.40
71175;DHT22;58876;51.994;4.472;2023-08-20T05:02:13;18.64;79.66
71175;DHT22;58876;51.994;4.472;2023-08-20T05:04:38;18.59;79.81
71175;DHT22;58876;51.994;4.472;2023-08-20T05:07:04;18.56;80.12
71175;DHT22;58876;51.994;4.472;2023-08-20T05:09:30;18.61;80.18
71175;DHT22;58876;51.994;4.472;2023-08-20T05:11:56;18.65;80.17
71175;DHT22;58876;51.994;4.472;2023-08-20T05:14:21;18.65;79.84
71175;DHT22;58876;51.994;4.472;2023-08-20T05:16:47;18.71;79.95
71175;DHT22;58876;51.994;4.472;2023-08-20T05:19:12;18.75;79.75
71175;DHT22;58876;51.994;4.472;2023-08-20T05:21:38;18.78;79.69
71175;DHT22;58876;51.994;4.472;2023-08-20T05:24:04;18.87;79.62
71175;DHT22;58876;51.994;4.472;2023-08-20T05:26:29;18.90;79.50
71175;DHT22;58876;51.994;4.472;2023-08-20T05:28:55;18.85;79.32
71175;DHT22;58876;51.994;4.472;2023-08-20T05:31:20;18.92;79.51
71175;DHT22;58876;51.994;4.472;2023-08-20T05:33:46;18.98;79.59
71175;DHT22;58876;51.994;4.472;2023-08-20T05:36:11;19.02;79.54
71175;DHT22;58876;51.994;4.472;2023-08-20T05:38:37;19.07;79.60
71175;DHT22;58876;51.994;4.472;2023-08-20T05:41:02;19.12;79.69
71175;DHT22;58876;51.994;4.472;2023-08-20T05:43:28;19.12;79.87
71175;DHT22;58876;51.994;4.472;2023-08-20T05:45:53;19.20;79.48
71175;DHT22;58876;51.994;4.472;2023-08-20T05:48:19;19.25;79.72
71175;DHT22;58876;51.994;4.472;2023-08-20T05:50:44;19.20;80.22
71175;DHT22;58876;51.994;4.472;2023-08-20T05:53:10;19.33;79.91
71175;DHT22;58876;51.994;4.472;2023-08-20T05:55:36;19.40;79.67
71175;DHT22;58876;51.994;4.472;2023-08-20T05:58:02;19.40;79.62
71175;DHT22;58876;51.994;4.472;2023-08-20T06:00:28;19.45;79.46
71175;DHT22;58876;51.994;4.472;2023-08-20T06:02:53;19.39;79.81
71175;DHT22;58876;51.994;4.472;2023-08-20T06:05:19;19.43;80.10
71175;DHT22;58876;51.994;4.472;2023-08-20T06:07:44;19.55;79.85
71175;DHT22;58876;51.994;4.472;2023-08-20T06:10:10;19.62;79.61
71175;DHT22;58876;51.994;4.472;2023-08-20T06:12:37;19.60;79.68
71175;DHT22;58876;51.994;4.472;2023-08-20T06:15:04;19.62;79.81
71175;DHT22;58876;51.994;4.472;2023-08-20T06:17:29;19.65;79.66
71175;DHT22;58876;51.994;4.472;2023-08-20T06:19:55;19.73;79.44
71175;DHT22;58876;51.994;4.472;2023-08-20T06:22:20;19.73;79.80
71175;DHT22;58876;51.994;4.472;2023-08-20T06:24:46;19.83;79.64
71175;DHT22;58876;51.994;4.472;2023-08-20T06:27:11;19.93;79.39
71175;DHT22;58876;51.994;4.472;2023-08-20T06:29:36;20.06;79.12
71175;DHT22;58876;51.994;4.472;2023-08-20T06:32:03;20.10;79.29
71175;DHT22;58876;51.994;4.472;2023-08-20T06:34:28;20.14;78.79
71175;DHT22;58876;51.994;4.472;2023-08-20T06:36:54;20.06;78.73
71175;DHT22;58876;51.994;4.472;2023-08-20T06:39:19;20.18;78.81
71175;DHT22;58876;51.994;4.472;2023-08-20T06:41:45;20.27;78.18
71175;DHT22;58876;51.994;4.472;2023-08-20T06:44:11;20.25;78.40
71175;DHT22;58876;51.994;4.472;2023-08-20T06:46:36;20.28;78.55
71175;DHT22;58876;51.994;4.472;2023-08-20T06:49:02;20.32;78.36
71175;DHT22;58876;51.994;4.472;2023-08-20T06:51:28;20.39;78.65
71175;DHT22;58876;51.994;4.472;2023-08-20T06:53:54;20.55;77.92
71175;DHT22;58876;51.994;4.472;2023-08-20T06:56:22;20.66;77.62
71175;DHT22;58876;51.994;4.472;2023-08-20T06:58:48;20.72;76.70
71175;DHT22;58876;51.994;4.472;2023-08-20T07:01:13;20.56;77.76
71175;DHT22;58876;51.994;4.472;2023-08-20T07:03:41;20.56;77.20
71175;DHT22;58876;51.994;4.472;2023-08-20T07:06:08;20.62;77.73
71175;DHT22;58876;51.994;4.472;2023-08-20T07:08:38;20.83;76.66
71175;DHT22;58876;51.994;4.472;2023-08-20T07:11:07;20.99;76.70
71175;DHT22;58876;51.994;4.472;2023-08-20T07:13:33;20.97;75.55
71175;DHT22;58876;51.994;4.472;2023-08-20T07:15:58;21.02;75.72
71175;DHT22;58876;51.994;4.472;2023-08-20T07:18:24;21.19;75.41
71175;DHT22;58876;51.994;4.472;2023-08-20T07:20:50;21.45;75.66
71175;DHT22;58876;51.994;4.472;2023-08-20T07:23:17;21.48;74.42
71175;DHT22;58876;51.994;4.472;2023-08-20T07:25:42;21.58;73.61
71175;DHT22;58876;51.994;4.472;2023-08-20T07:28:10;21.65;74.19
71175;DHT22;58876;51.994;4.472;2023-08-20T07:30:36;21.61;73.80
71175;DHT22;58876;51.994;4.472;2023-08-20T07:33:02;21.44;74.27
71175;DHT22;58876;51.994;4.472;2023-08-20T07:35:28;21.50;74.11
71175;DHT22;58876;51.994;4.472;2023-08-20T07:37:53;21.81;73.27
71175;DHT22;58876;51.994;4.472;2023-08-20T07:40:19;21.73;72.84
71175;DHT22;58876;51.994;4.472;2023-08-20T07:42:45;21.84;73.11
71175;DHT22;58876;51.994;4.472;2023-08-20T07:45:10;22.02;71.54
71175;DHT22;58876;51.994;4.472;2023-08-20T07:47:37;22.13;71.53
71175;DHT22;58876;51.994;4.472;2023-08-20T07:50:03;22.47;70.97
71175;DHT22;58876;51.994;4.472;2023-08-20T07:52:30;22.78;70.44
71175;DHT22;58876;51.994;4.472;2023-08-20T07:54:56;23.08;69.12
71175;DHT22;58876;51.994;4.472;2023-08-20T07:57:21;23.26;68.17
71175;DHT22;58876;51.994;4.472;2023-08-20T07:59:49;23.59;67.69
71175;DHT22;58876;51.994;4.472;2023-08-20T08:02:14;24.01;64.92
71175;DHT22;58876;51.994;4.472;2023-08-20T08:04:42;24.17;64.71
71175;DHT22;58876;51.994;4.472;2023-08-20T08:07:08;24.11;64.44
71175;DHT22;58876;51.994;4.472;2023-08-20T08:09:34;24.11;65.31
71175;DHT22;58876;51.994;4.472;2023-08-20T08:12:00;24.13;64.18
71175;DHT22;58876;51.994;4.472;2023-08-20T08:14:26;24.28;64.06
71175;DHT22;58876;51.994;4.472;2023-08-20T08:16:52;24.25;63.60
71175;DHT22;58876;51.994;4.472;2023-08-20T08:19:18;24.99;62.26
71175;DHT22;58876;51.994;4.472;2023-08-20T08:21:46;25.73;59.33
71175;DHT22;58876;51.994;4.472;2023-08-20T08:24:12;26.19;59.06
71175;DHT22;58876;51.994;4.472;2023-08-20T08:26:39;26.82;55.89
71175;DHT22;58876;51.994;4.472;2023-08-20T08:29:05;27.16;55.49
71175;DHT22;58876;51.994;4.472;2023-08-20T08:31:31;26.77;54.79
71175;DHT22;58876;51.994;4.472;2023-08-20T08:33:57;26.49;55.97
71175;DHT22;58876;51.994;4.472;2023-08-20T08:36:22;26.74;56.98
71175;DHT22;58876;51.994;4.472;2023-08-20T08:38:51;26.90;56.00
71175;DHT22;58876;51.994;4.472;2023-08-20T08:41:16;27.08;55.93
71175;DHT22;58876;51.994;4.472;2023-08-20T08:43:42;27.42;54.58
71175;DHT22;58876;51.994;4.472;2023-08-20T08:46:14;26.56;54.58
71175;DHT22;58876;51.994;4.472;2023-08-20T08:48:42;26.42;53.84
71175;DHT22;58876;51.994;4.472;2023-08-20T08:51:08;26.26;55.97
71175;DHT22;58876;51.994;4.472;2023-08-20T08:53:35;26.16;57.12
71175;DHT22;58876;51.994;4.472;2023-08-20T08:56:02;26.33;56.86
71175;DHT22;58876;51.994;4.472;2023-08-20T08:58:28;26.63;56.92
71175;DHT22;58876;51.994;4.472;2023-08-20T09:00:54;26.49;53.99
71175;DHT22;58876;51.994;4.472;2023-08-20T09:03:20;25.48;58.25
71175;DHT22;58876;51.994;4.472;2023-08-20T09:05:47;25.58;59.82
71175;DHT22;58876;51.994;4.472;2023-08-20T09:08:20;26.37;57.84
71175;DHT22;58876;51.994;4.472;2023-08-20T09:10:50;26.73;56.34
71175;DHT22;58876;51.994;4.472;2023-08-20T09:13:15;26.87;55.81
71175;DHT22;58876;51.994;4.472;2023-08-20T09:15:41;26.31;55.38
71175;DHT22;58876;51.994;4.472;2023-08-20T09:18:09;26.35;57.97
71175;DHT22;58876;51.994;4.472;2023-08-20T09:20:38;25.94;55.31
71175;DHT22;58876;51.994;4.472;2023-08-20T09:23:04;25.71;56.67
71175;DHT22;58876;51.994;4.472;2023-08-20T09:25:35;25.51;56.68
71175;DHT22;58876;51.994;4.472;2023-08-20T09:28:04;25.97;54.60
71175;DHT22;58876;51.994;4.472;2023-08-20T09:30:30;25.67;56.03
71175;DHT22;58876;51.994;4.472;2023-08-20T09:33:11;25.20;58.28
71175;DHT22;58876;51.994;4.472;2023-08-20T09:35:37;25.54;58.07
71175;DHT22;58876;51.994;4.472;2023-08-20T09:38:04;25.82;58.38
71175;DHT22;58876;51.994;4.472;2023-08-20T09:40:30;25.97;58.94
71175;DHT22;58876;51.994;4.472;2023-08-20T09:42:56;25.74;59.75
71175;DHT22;58876;51.994;4.472;2023-08-20T09:45:28;25.23;60.32
71175;DHT22;58876;51.994;4.472;2023-08-20T09:47:55;25.20;59.70
71175;DHT22;58876;51.994;4.472;2023-08-20T09:50:22;24.92;61.03
71175;DHT22;58876;51.994;4.472;2023-08-20T09:52:58;24.83;61.96
71175;DHT22;58876;51.994;4.472;2023-08-20T09:55:33;24.96;61.45
71175;DHT22;58876;51.994;4.472;2023-08-20T09:58:02;25.12;62.00
71175;DHT22;58876;51.994;4.472;2023-08-20T10:00:28;25.46;60.13
71175;DHT22;58876;51.994;4.472;2023-08-20T10:02:55;25.47;59.93
71175;DHT22;58876;51.994;4.472;2023-08-20T10:05:23;25.75;58.12
71175;DHT22;58876;51.994;4.472;2023-08-20T10:07:49;25.53;57.18
71175;DHT22;58876;51.994;4.472;2023-08-20T10:10:15;25.70;57.85
71175;DHT22;58876;51.994;4.472;2023-08-20T10:12:43;25.99;56.18
71175;DHT22;58876;51.994;4.472;2023-08-20T10:15:12;26.14;56.58
71175;DHT22;58876;51.994;4.472;2023-08-20T10:17:40;26.18;55.93
71175;DHT22;58876;51.994;4.472;2023-08-20T10:20:08;26.02;56.89
71175;DHT22;58876;51.994;4.472;2023-08-20T10:22:38;25.66;57.59
71175;DHT22;58876;51.994;4.472;2023-08-20T10:25:12;25.80;56.86
71175;DHT22;58876;51.994;4.472;2023-08-20T10:27:40;25.94;56.89
71175;DHT22;58876;51.994;4.472;2023-08-20T10:30:23;25.77;55.91
71175;DHT22;58876;51.994;4.472;2023-08-20T10:35:46;25.99;54.30
71175;DHT22;58876;51.994;4.472;2023-08-20T10:38:17;25.57;55.53
71175;DHT22;58876;51.994;4.472;2023-08-20T10:40:56;25.16;56.17
71175;DHT22;58876;51.994;4.472;2023-08-20T10:46:14;24.96;55.51
71175;DHT22;58876;51.994;4.472;2023-08-20T10:48:41;25.13;56.03
71175;DHT22;58876;51.994;4.472;2023-08-20T10:53:37;25.71;55.02
71175;DHT22;58876;51.994;4.472;2023-08-20T10:58:34;25.87;54.71
71175;DHT22;58876;51.994;4.472;2023-08-20T11:01:12;26.24;53.32
71175;DHT22;58876;51.994;4.472;2023-08-20T11:03:39;26.08;55.14
71175;DHT22;58876;51.994;4.472;2023-08-20T11:06:06;26.29;54.32
71175;DHT22;58876;51.994;4.472;2023-08-20T11:08:32;25.94;54.73
71175;DHT22;58876;51.994;4.472;2023-08-20T11:10:57;26.18;53.07
71175;DHT22;58876;51.994;4.472;2023-08-20T11:13:25;26.42;53.86
71175;DHT22;58876;51.994;4.472;2023-08-20T11:15:50;26.33;53.58
71175;DHT22;58876;51.994;4.472;2023-08-20T11:18:16;26.01;54.51
71175;DHT22;58876;51.994;4.472;2023-08-20T11:20:42;26.50;53.47
71175;DHT22;58876;51.994;4.472;2023-08-20T11:23:08;26.67;52.53
71175;DHT22;58876;51.994;4.472;2023-08-20T11:25:34;27.07;51.02
71175;DHT22;58876;51.994;4.472;2023-08-20T11:27:59;27.10;52.87
71175;DHT22;58876;51.994;4.472;2023-08-20T11:30:29;27.24;50.62
71175;DHT22;58876;51.994;4.472;2023-08-20T11:32:55;27.18;50.74
71175;DHT22;58876;51.994;4.472;2023-08-20T11:35:21;26.98;49.93
71175;DHT22;58876;51.994;4.472;2023-08-20T11:37:46;27.08;51.16
71175;DHT22;58876;51.994;4.472;2023-08-20T11:40:12;27.46;49.65
71175;DHT22;58876;51.994;4.472;2023-08-20T11:42:37;26.84;48.27
71175;DHT22;58876;51.994;4.472;2023-08-20T11:45:03;26.31;50.06
71175;DHT22;58876;51.994;4.472;2023-08-20T11:47:29;26.59;50.60
71175;DHT22;58876;51.994;4.472;2023-08-20T11:50:04;26.64;51.30
71175;DHT22;58876;51.994;4.472;2023-08-20T11:52:32;26.72;52.04
71175;DHT22;58876;51.994;4.472;2023-08-20T11:54:58;26.98;50.37
71175;DHT22;58876;51.994;4.472;2023-08-20T11:57:23;27.01;49.03
71175;DHT22;58876;51.994;4.472;2023-08-20T11:59:49;27.45;48.69
71175;DHT22;58876;51.994;4.472;2023-08-20T12:02:14;27.93;48.08
71175;DHT22;58876;51.994;4.472;2023-08-20T12:04:40;27.93;44.71
71175;DHT22;58876;51.994;4.472;2023-08-20T12:07:09;27.56;47.26
71175;DHT22;58876;51.994;4.472;2023-08-20T12:09:35;27.18;48.82
71175;DHT22;58876;51.994;4.472;2023-08-20T12:12:01;27.18;47.34
71175;DHT22;58876;51.994;4.472;2023-08-20T12:14:28;27.61;48.13
71175;DHT22;58876;51.994;4.472;2023-08-20T12:16:54;27.54;44.09
71175;DHT22;58876;51.994;4.472;2023-08-20T12:19:20;27.66;44.52
71175;DHT22;58876;51.994;4.472;2023-08-20T12:21:46;28.04;46.44
71175;DHT22;58876;51.994;4.472;2023-08-20T12:24:12;27.61;46.10
71175;DHT22;58876;51.994;4.472;2023-08-20T12:26:38;28.14;47.32
71175;DHT22;58876;51.994;4.472;2023-08-20T12:29:04;28.71;46.24
71175;DHT22;58876;51.994;4.472;2023-08-20T12:31:34;29.03;44.95
71175;DHT22;58876;51.994;4.472;2023-08-20T12:34:00;28.99;44.66
71175;DHT22;58876;51.994;4.472;2023-08-20T12:36:26;29.01;45.33
71175;DHT22;58876;51.994;4.472;2023-08-20T12:38:51;28.76;44.04
71175;DHT22;58876;51.994;4.472;2023-08-20T12:41:18;28.16;46.67
71175;DHT22;58876;51.994;4.472;2023-08-20T12:43:44;28.20;47.33
71175;DHT22;58876;51.994;4.472;2023-08-20T12:46:09;28.25;47.47
71175;DHT22;58876;51.994;4.472;2023-08-20T12:48:35;28.37;46.40
71175;DHT22;58876;51.994;4.472;2023-08-20T12:51:01;28.55;47.83
71175;DHT22;58876;51.994;4.472;2023-08-20T12:53:28;28.31;47.16
71175;DHT22;58876;51.994;4.472;2023-08-20T12:55:53;28.30;44.48
71175;DHT22;58876;51.994;4.472;2023-08-20T12:58:19;28.34;45.14
71175;DHT22;58876;51.994;4.472;2023-08-20T13:00:46;28.02;44.67
71175;DHT22;58876;51.994;4.472;2023-08-20T13:03:12;27.75;45.14
71175;DHT22;58876;51.994;4.472;2023-08-20T13:05:37;28.16;46.03
71175;DHT22;58876;51.994;4.472;2023-08-20T13:08:03;28.20;43.20
71175;DHT22;58876;51.994;4.472;2023-08-20T13:10:29;27.94;44.65
71175;DHT22;58876;51.994;4.472;2023-08-20T13:13:00;27.69;44.09
71175;DHT22;58876;51.994;4.472;2023-08-20T13:15:26;27.66;44.78
71175;DHT22;58876;51.994;4.472;2023-08-20T13:17:52;27.78;45.33
71175;DHT22;58876;51.994;4.472;2023-08-20T13:20:19;27.86;47.18
71175;DHT22;58876;51.994;4.472;2023-08-20T13:22:49;28.24;46.26
71175;DHT22;58876;51.994;4.472;2023-08-20T13:25:15;28.62;45.50
71175;DHT22;58876;51.994;4.472;2023-08-20T13:27:41;28.64;45.59
71175;DHT22;58876;51.994;4.472;2023-08-20T13:30:07;28.52;45.39
71175;DHT22;58876;51.994;4.472;2023-08-20T13:32:34;28.31;45.80
71175;DHT22;58876;51.994;4.472;2023-08-20T13:34:59;28.16;47.65
71175;DHT22;58876;51.994;4.472;2023-08-20T13:37:25;28.23;46.38
71175;DHT22;58876;51.994;4.472;2023-08-20T13:39:51;28.18;44.89
71175;DHT22;58876;51.994;4.472;2023-08-20T13:42:16;28.09;46.47
71175;DHT22;58876;51.994;4.472;2023-08-20T13:44:42;27.61;46.80
71175;DHT22;58876;51.994;4.472;2023-08-20T13:47:08;27.81;45.31
71175;DHT22;58876;51.994;4.472;2023-08-20T13:49:33;27.93;46.62
71175;DHT22;58876;51.994;4.472;2023-08-20T13:51:59;28.24;45.25
71175;DHT22;58876;51.994;4.472;2023-08-20T13:54:24;27.86;46.80
71175;DHT22;58876;51.994;4.472;2023-08-20T13:56:50;28.45;46.97
71175;DHT22;58876;51.994;4.472;2023-08-20T13:59:15;28.33;45.93
71175;DHT22;58876;51.994;4.472;2023-08-20T14:01:41;28.31;47.24
71175;DHT22;58876;51.994;4.472;2023-08-20T14:04:06;28.61;48.19
71175;DHT22;58876;51.994;4.472;2023-08-20T14:06:32;28.50;45.42
71175;DHT22;58876;51.994;4.472;2023-08-20T14:08:58;28.28;46.48
71175;DHT22;58876;51.994;4.472;2023-08-20T14:11:23;28.62;47.16
71175;DHT22;58876;51.994;4.472;2023-08-20T14:13:49;29.01;45.71
71175;DHT22;58876;51.994;4.472;2023-08-20T14:16:14;28.95;44.99
71175;DHT22;58876;51.994;4.472;2023-08-20T14:18:40;28.95;47.01
71175;DHT22;58876;51.994;4.472;2023-08-20T14:21:06;29.16;47.81
71175;DHT22;58876;51.994;4.472;2023-08-20T14:23:31;29.01;46.43
71175;DHT22;58876;51.994;4.472;2023-08-20T14:25:57;28.23;45.61
71175;DHT22;58876;51.994;4.472;2023-08-20T14:28:22;28.13;47.89
71175;DHT22;58876;51.994;4.472;2023-08-20T14:30:49;28.37;46.25
71175;DHT22;58876;51.994;4.472;2023-08-20T14:33:16;28.48;46.06
71175;DHT22;58876;51.994;4.472;2023-08-20T14:35:41;28.40;46.79
71175;DHT22;58876;51.994;4.472;2023-08-20T14:38:07;28.43;46.85
71175;DHT22;58876;51.994;4.472;2023-08-20T14:40:41;28.54;46.05
71175;DHT22;58876;51.994;4.472;2023-08-20T14:43:07;28.81;45.14
71175;DHT22;58876;51.994;4.472;2023-08-20T14:45:33;28.52;44.35
71175;DHT22;58876;51.994;4.472;2023-08-20T14:47:58;28.27;45.36
71175;DHT22;58876;51.994;4.472;2023-08-20T14:50:24;27.82;45.21
71175;DHT22;58876;51.994;4.472;2023-08-20T14:52:49;27.69;45.91
71175;DHT22;58876;51.994;4.472;2023-08-20T14:55:21;27.99;46.80
71175;DHT22;58876;51.994;4.472;2023-08-20T14:57:47;27.70;44.95
71175;DHT22;58876;51.994;4.472;2023-08-20T15:00:13;27.61;45.96
71175;DHT22;58876;51.994;4.472;2023-08-20T15:02:40;27.39;45.87
71175;DHT22;58876;51.994;4.472;2023-08-20T15:05:06;27.44;45.27
71175;DHT22;58876;51.994;4.472;2023-08-20T15:07:32;27.59;46.86
71175;DHT22;58876;51.994;4.472;2023-08-20T15:09:57;27.61;45.77
71175;DHT22;58876;51.994;4.472;2023-08-20T15:12:23;27.54;44.96
71175;DHT22;58876;51.994;4.472;2023-08-20T15:14:48;27.79;43.81
71175;DHT22;58876;51.994;4.472;2023-08-20T15:17:14;27.46;46.71
71175;DHT22;58876;51.994;4.472;2023-08-20T15:19:39;27.08;44.96
71175;DHT22;58876;51.994;4.472;2023-08-20T15:22:04;26.94;45.80
71175;DHT22;58876;51.994;4.472;2023-08-20T15:24:31;27.42;45.91
71175;DHT22;58876;51.994;4.472;2023-08-20T15:26:56;27.61;45.86
71175;DHT22;58876;51.994;4.472;2023-08-20T15:29:22;27.11;47.69
71175;DHT22;58876;51.994;4.472;2023-08-20T15:31:47;27.37;48.60
71175;DHT22;58876;51.994;4.472;2023-08-20T15:34:16;27.82;47.19
71175;DHT22;58876;51.994;4.472;2023-08-20T15:36:41;27.49;46.52
71175;DHT22;58876;51.994;4.472;2023-08-20T15:39:07;27.54;46.97